Time;durP1;ratioP1;P1;durP2;ratioP2;P2;SDS_P1;SDS_P2;PMS_P1;PMS_P2;Temp;Humidity;BMP_temperature;BMP_pressure;BME280_temperature;BME280_humidity;BME280_pressure;Samples;Min_cycle;Max_cycle;Signal;HPM_P1;HPM_P2
2021/01/25 05:15:14;;;;;;;1.30;1.30;;;2.40;99.90;;;;;;5959825;23;20225;31
2021/01/25 05:17:46;;;;;;;1.03;1.03;;;2.40;99.90;;;;;;4863648;29;20630;-79
2021/01/25 05:20:13;;;;;;;1.20;1.20;;;2.50;99.90;;;;;;4866125;29;20217;-81
2021/01/25 05:22:40;;;;;;;1.20;1.20;;;2.50;99.90;;;;;;4866094;29;20204;-80
2021/01/25 05:25:09;;;;;;;1.30;1.30;;;2.90;99.90;;;;;;4865033;29;20581;-80
2021/01/25 05:27:36;;;;;;;1.13;1.13;;;2.80;99.90;;;;;;4846408;29;20631;-80
2021/01/25 05:30:08;;;;;;;1.07;1.07;;;2.60;99.90;;;;;;4849565;29;20698;-79
2021/01/25 05:32:51;;;;;;;1.10;1.10;;;2.80;99.90;;;;;;4847819;29;20594;-79
2021/01/25 05:35:22;;;;;;;1.10;1.10;;;2.60;99.90;;;;;;4854246;29;20209;-79
2021/01/25 05:37:54;;;;;;;1.30;1.30;;;2.80;99.90;;;;;;4868402;29;20742;-79
2021/01/25 05:40:22;;;;;;;1.30;1.30;;;2.80;99.90;;;;;;4869033;29;20209;-79
2021/01/25 05:42:50;;;;;;;1.20;1.20;;;3.70;99.90;;;;;;4870435;29;20209;-79
2021/01/25 05:45:18;;;;;;;1.20;1.20;;;2.90;99.90;;;;;;4867846;29;20204;-79
2021/01/25 05:47:47;;;;;;;1.20;1.20;;;2.90;99.90;;;;;;4870728;29;20213;-80
2021/01/25 05:50:29;;;;;;;1.20;1.20;;;2.60;99.90;;;;;;4875755;29;20268;-80
2021/01/25 05:52:58;;;;;;;1.20;1.20;;;2.90;99.90;;;;;;4871812;29;20228;-79
2021/01/25 05:55:26;;;;;;;1.00;1.00;;;3.30;99.90;;;;;;4869048;29;20261;-80
2021/01/25 05:57:53;;;;;;;1.30;1.30;;;3.20;99.90;;;;;;4870339;29;20217;-79
2021/01/25 06:00:21;;;;;;;1.20;1.20;;;3.10;99.90;;;;;;4868897;29;20221;-79
2021/01/25 06:02:50;;;;;;;1.30;1.30;;;3.30;99.90;;;;;;4867517;29;20213;-80
2021/01/25 06:05:38;;;;;;;1.30;1.30;;;3.50;99.90;;;;;;4858180;29;20209;-79
2021/01/25 06:08:30;;;;;;;1.23;1.23;;;3.60;99.90;;;;;;4846206;29;20228;-79
2021/01/25 06:11:04;;;;;;;1.10;1.10;;;3.50;99.90;;;;;;4847665;29;20213;-77
2021/01/25 06:13:35;;;;;;;1.10;1.10;;;3.50;99.90;;;;;;4845072;29;20232;-80
2021/01/25 06:16:05;;;;;;;1.10;1.10;;;3.60;99.90;;;;;;4845192;29;20241;-78
2021/01/25 06:18:33;;;;;;;1.30;1.30;;;3.70;99.90;;;;;;4844831;29;20213;-78
2021/01/25 06:21:03;;;;;;;1.13;1.13;;;3.50;99.90;;;;;;4845468;29;20209;-81
2021/01/25 06:23:30;;;;;;;1.20;1.20;;;3.60;99.90;;;;;;4854369;29;20236;-79
2021/01/25 06:25:57;;;;;;;1.40;1.40;;;3.60;99.90;;;;;;4859376;29;20218;-81
2021/01/25 06:28:25;;;;;;;1.10;1.10;;;3.70;99.90;;;;;;4866247;29;20216;-78
2021/01/25 06:30:55;;;;;;;1.20;1.20;;;3.60;99.90;;;;;;4866620;29;20215;-80
2021/01/25 06:33:22;;;;;;;1.20;1.20;;;3.60;99.90;;;;;;4864782;29;20214;-80
2021/01/25 06:35:50;;;;;;;1.20;1.20;;;3.60;99.90;;;;;;4863007;29;20237;-80
2021/01/25 06:38:19;;;;;;;1.10;1.10;;;3.50;99.90;;;;;;4859554;29;20262;-77
2021/01/25 06:40:48;;;;;;;1.20;1.20;;;3.70;99.90;;;;;;4843269;29;20740;-80
2021/01/25 06:43:17;;;;;;;1.60;1.60;;;3.70;99.90;;;;;;4840605;29;20268;-80
2021/01/25 06:45:44;;;;;;;1.10;1.10;;;3.60;99.90;;;;;;4843990;29;20443;-79
2021/01/25 06:48:13;;;;;;;1.20;1.20;;;3.60;99.90;;;;;;4844607;29;20199;-79
2021/01/25 06:50:44;;;;;;;1.10;1.10;;;3.70;99.90;;;;;;4843935;29;20258;-80
2021/01/25 06:53:11;;;;;;;1.20;1.20;;;3.70;99.90;;;;;;4847679;29;20213;-80
2021/01/25 06:55:42;;;;;;;1.37;1.37;;;3.80;99.90;;;;;;4835763;29;20221;-80
2021/01/25 06:58:11;;;;;;;1.30;1.30;;;3.90;99.90;;;;;;4836581;29;20259;-79
2021/01/25 12:55:19;;;;;;;1.17;1.17;;;4.90;99.90;;;;;;6147404;22;886059;-76
2021/01/25 12:57:47;;;;;;;1.10;1.10;;;4.30;99.90;;;;;;6213705;23;20174;-77
2021/01/25 13:00:17;;;;;;;1.20;1.20;;;4.50;99.90;;;;;;6214019;23;20273;-78
2021/01/25 13:02:44;;;;;;;1.30;1.30;;;4.50;99.90;;;;;;6215320;23;20194;-78
2021/01/25 13:05:12;;;;;;;1.23;1.23;;;4.50;99.90;;;;;;6192029;23;20194;-78
2021/01/25 13:07:39;;;;;;;1.20;1.20;;;;;;;;;;6185540;23;20537;-77
2021/01/25 13:10:07;;;;;;;1.20;1.20;;;4.50;99.90;;;;;;6184265;23;20183;-77
2021/01/25 13:12:37;;;;;;;1.10;1.10;;;4.60;99.90;;;;;;6183969;23;20661;-77
2021/01/25 13:15:05;;;;;;;1.20;1.20;;;4.90;99.90;;;;;;6183937;23;20203;-77
2021/01/25 13:17:33;;;;;;;1.13;1.13;;;5.00;99.90;;;;;;6186030;23;20233;-77
2021/01/25 13:20:00;;;;;;;1.10;1.10;;;4.90;99.90;;;;;;6186823;23;20175;-77
2021/01/25 13:22:27;;;;;;;1.10;1.10;;;5.00;99.90;;;;;;6185516;23;20198;-77
2021/01/25 13:24:54;;;;;;;1.10;1.10;;;4.80;99.90;;;;;;6185611;23;20206;-77
2021/01/25 13:27:20;;;;;;;1.20;1.20;;;4.90;99.90;;;;;;6186722;23;20205;-77
2021/01/25 13:29:48;;;;;;;1.10;1.10;;;5.00;99.90;;;;;;6184909;23;20182;-78
2021/01/25 13:32:25;;;;;;;1.23;1.23;;;5.20;99.90;;;;;;6183979;23;20155;-78
2021/01/25 13:34:53;;;;;;;1.00;1.00;;;5.20;99.90;;;;;;6184395;23;20592;-78
2021/01/25 13:37:20;;;;;;;1.00;1.00;;;5.00;99.90;;;;;;6184275;23;20232;-78
2021/01/25 13:39:47;;;;;;;1.30;1.30;;;4.80;99.90;;;;;;6184142;23;20533;-78
2021/01/25 13:42:32;;;;;;;1.30;1.30;;;4.70;99.90;;;;;;6184563;23;20529;-78
2021/01/25 13:45:00;;;;;;;1.30;1.30;;;4.60;99.90;;;;;;6185146;23;20572;-79
2021/01/25 13:47:26;;;;;;;1.10;1.10;;;4.50;99.90;;;;;;6187137;23;20179;-78
2021/01/25 13:49:53;;;;;;;1.30;1.30;;;4.10;99.90;;;;;;6184342;23;20242;-78
2021/01/25 13:52:20;;;;;;;1.10;1.10;;;4.60;99.90;;;;;;6184343;23;20225;-78
2021/01/25 13:54:47;;;;;;;1.10;1.10;;;4.50;99.90;;;;;;6201767;23;20267;-78
2021/01/25 13:57:14;;;;;;;1.20;1.20;;;4.40;99.90;;;;;;6214297;23;20174;-77
2021/01/25 13:59:41;;;;;;;1.20;1.20;;;4.40;99.90;;;;;;6214651;23;20236;-77
2021/01/25 14:02:09;;;;;;;1.20;1.20;;;4.70;99.90;;;;;;6214203;23;20194;-78
2021/01/25 14:04:36;;;;;;;1.30;1.30;;;4.90;99.90;;;;;;6213884;23;20529;-77
2021/01/25 14:07:03;;;;;;;1.20;1.20;;;4.90;99.90;;;;;;6219190;23;20174;-76
2021/01/25 14:09:29;;;;;;;1.10;1.10;;;4.80;99.90;;;;;;6219940;23;20178;-78
2021/01/25 14:11:57;;;;;;;1.20;1.20;;;4.70;99.90;;;;;;6221100;22;20206;-81
2021/01/25 14:14:24;;;;;;;1.20;1.20;;;4.60;99.90;;;;;;6221601;23;20185;-80
2021/01/25 14:16:51;;;;;;;1.17;1.17;;;4.50;99.90;;;;;;6219064;23;20232;-81
2021/01/25 14:19:20;;;;;;;1.20;1.20;;;4.60;99.90;;;;;;6216345;23;20177;-79
2021/01/25 14:21:46;;;;;;;1.20;1.20;;;4.80;99.90;;;;;;6220822;23;20225;-80
2021/01/25 14:24:14;;;;;;;1.17;1.17;;;;;;;;;;6219537;23;20181;-81
2021/01/25 14:26:41;;;;;;;1.10;1.10;;;5.00;99.90;;;;;;6215325;23;20224;-79
2021/01/25 14:29:08;;;;;;;1.47;1.47;;;;;;;;;;6222404;23;20174;-80
2021/01/25 14:31:35;;;;;;;1.17;1.17;;;;;;;;;;6219231;23;20198;-81
2021/01/25 14:34:02;;;;;;;1.10;1.10;;;5.10;99.90;;;;;;6220321;23;20238;-80
2021/01/25 14:36:31;;;;;;;1.20;1.20;;;5.00;99.90;;;;;;6220338;23;20174;-80
2021/01/25 14:38:58;;;;;;;1.20;1.20;;;4.80;99.90;;;;;;6217391;23;20228;-80
2021/01/25 14:41:25;;;;;;;1.23;1.23;;;;;;;;;;6217695;23;20264;-80
2021/01/25 14:43:54;;;;;;;1.10;1.10;;;;;;;;;;6219355;23;20194;-80
2021/01/25 14:46:22;;;;;;;1.23;1.23;;;;;;;;;;6217642;23;20228;-80
2021/01/25 14:48:48;;;;;;;1.20;1.20;;;4.60;99.90;;;;;;6217070;23;20232;-80
2021/01/25 14:51:16;;;;;;;1.00;1.00;;;4.50;99.90;;;;;;6219884;23;20217;-80
2021/01/25 14:53:43;;;;;;;1.17;1.17;;;4.30;99.90;;;;;;6219403;23;20220;-78
2021/01/25 14:56:10;;;;;;;1.27;1.27;;;4.30;99.90;;;;;;6220066;23;20177;-78
2021/01/25 14:58:37;;;;;;;1.27;1.27;;;3.90;99.90;;;;;;6220281;23;20229;-79
2021/01/25 15:01:04;;;;;;;1.33;1.33;;;4.00;99.90;;;;;;6219191;23;20194;-79
2021/01/25 15:03:31;;;;;;;1.10;1.10;;;4.10;99.90;;;;;;6226766;23;20579;-78
2021/01/25 15:05:58;;;;;;;1.20;1.20;;;4.00;99.90;;;;;;6228075;23;20232;-80
2021/01/25 15:08:26;;;;;;;1.33;1.33;;;3.90;99.90;;;;;;6225526;23;20178;-79
2021/01/25 15:10:54;;;;;;;1.20;1.20;;;3.90;99.90;;;;;;6221198;23;20586;-80
2021/01/25 15:13:21;;;;;;;1.20;1.20;;;;;;;;;;6215751;23;20220;-77
2021/01/25 15:15:48;;;;;;;1.20;1.20;;;3.90;99.90;;;;;;6216463;23;20178;-77
2021/01/25 15:19:02;;;;;;;1.10;1.10;;;3.70;99.90;;;;;;6215386;23;20174;-79
2021/01/25 15:21:32;;;;;;;1.30;1.30;;;3.70;99.90;;;;;;6214068;23;20228;-77
2021/01/25 15:23:59;;;;;;;1.13;1.13;;;3.60;99.90;;;;;;6213716;23;20241;-77
2021/01/25 15:26:26;;;;;;;1.27;1.27;;;3.70;99.90;;;;;;6213762;23;20224;-77
2021/01/25 15:28:53;;;;;;;1.30;1.30;;;3.60;99.90;;;;;;6213989;23;20178;-75
2021/01/25 15:31:20;;;;;;;1.10;1.10;;;3.60;99.90;;;;;;6213923;23;20198;-78
2021/01/25 15:33:47;;;;;;;1.10;1.10;;;;;;;;;;6214423;23;20201;-78
2021/01/25 15:36:14;;;;;;;1.20;1.20;;;3.80;99.90;;;;;;6214414;23;20232;-77
2021/01/25 15:38:41;;;;;;;1.20;1.20;;;3.80;99.90;;;;;;6215297;23;20182;-78
2021/01/25 15:41:08;;;;;;;1.20;1.20;;;3.80;99.90;;;;;;6214176;23;20198;-77
2021/01/25 15:43:36;;;;;;;1.00;1.00;;;3.90;99.90;;;;;;6214450;23;20274;-77
2021/01/25 15:46:03;;;;;;;1.20;1.20;;;3.90;99.90;;;;;;6214371;23;20177;-79
2021/01/25 15:48:29;;;;;;;1.27;1.27;;;4.00;99.90;;;;;;6231922;23;20185;-78
2021/01/25 15:50:57;;;;;;;1.17;1.17;;;4.00;99.90;;;;;;6243983;23;20182;-79
2021/01/25 15:53:24;;;;;;;1.10;1.10;;;3.80;99.90;;;;;;6220167;23;20178;-77
2021/01/25 15:55:51;;;;;;;1.20;1.20;;;3.90;99.90;;;;;;6216223;23;20494;-78
2021/01/25 15:58:18;;;;;;;1.30;1.30;;;3.60;99.90;;;;;;6215592;23;20244;-77
2021/01/25 16:00:47;;;;;;;1.20;1.20;;;3.60;99.90;;;;;;6215314;23;20680;-75
2021/01/25 16:03:13;;;;;;;1.30;1.30;;;3.30;99.90;;;;;;6216182;23;20194;-77
2021/01/25 16:05:42;;;;;;;1.40;1.40;;;3.30;99.90;;;;;;6217758;23;20284;-76
2021/01/25 16:08:08;;;;;;;1.40;1.40;;;3.20;99.90;;;;;;6215740;23;20170;-77
2021/01/25 16:10:35;;;;;;;1.10;1.10;;;3.10;99.90;;;;;;6218504;23;20166;-77
2021/01/25 16:13:16;;;;;;;1.20;1.20;;;2.90;99.90;;;;;;6230377;23;20159;-78
2021/01/25 16:15:44;;;;;;;1.13;1.13;;;3.00;99.90;;;;;;6230819;23;20178;-78
2021/01/25 16:18:12;;;;;;;1.20;1.20;;;3.00;99.90;;;;;;6235886;23;20166;-76
2021/01/25 16:20:39;;;;;;;1.30;1.30;;;3.00;99.90;;;;;;6238442;23;20197;-76
2021/01/25 16:23:06;;;;;;;1.10;1.10;;;3.00;99.90;;;;;;6234898;23;20186;-77
2021/01/25 16:25:33;;;;;;;1.30;1.30;;;3.00;99.90;;;;;;6235453;23;20354;-77
2021/01/25 16:28:00;;;;;;;1.10;1.10;;;2.90;99.90;;;;;;6236608;23;20178;-77
2021/01/25 16:30:31;;;;;;;0.93;0.93;;;;;;;;;;6235382;23;20162;-79
2021/01/25 16:32:58;;;;;;;1.30;1.30;;;3.00;99.90;;;;;;6224232;23;20177;-80
2021/01/25 16:35:26;;;;;;;1.20;1.20;;;3.10;99.90;;;;;;6223604;23;20186;-79
2021/01/25 16:37:53;;;;;;;1.10;1.10;;;3.00;99.90;;;;;;6222579;23;20166;-80
2021/01/25 16:40:20;;;;;;;1.10;1.10;;;;;;;;;;6223709;23;20170;-78
2021/01/25 16:42:47;;;;;;;1.20;1.20;;;2.90;99.90;;;;;;6222511;23;20217;-79
2021/01/25 16:45:15;;;;;;;1.43;1.43;;;3.00;99.90;;;;;;6224568;23;20178;-76
2021/01/25 16:47:45;;;;;;;1.30;1.30;;;3.10;99.90;;;;;;6223093;23;20158;-79
2021/01/25 16:50:13;;;;;;;1.30;1.30;;;3.10;99.90;;;;;;6231825;23;20197;-77
2021/01/25 16:52:41;;;;;;;1.17;1.17;;;3.00;99.90;;;;;;6237799;23;20182;-77
2021/01/25 16:55:09;;;;;;;1.20;1.20;;;3.00;99.90;;;;;;6235026;23;20209;-77
2021/01/25 16:57:37;;;;;;;1.20;1.20;;;2.90;99.90;;;;;;6230627;23;20627;-79
2021/01/25 17:00:07;;;;;;;1.30;1.30;;;2.80;99.90;;;;;;6217985;23;20522;-78
2021/01/25 17:02:34;;;;;;;1.20;1.20;;;2.80;99.90;;;;;;6217380;23;20260;-77
2021/01/25 17:05:03;;;;;;;1.50;1.50;;;2.80;99.90;;;;;;6217763;23;20264;-79
2021/01/25 17:07:30;;;;;;;1.30;1.30;;;2.80;99.90;;;;;;6218395;23;20524;-77
2021/01/25 17:09:58;;;;;;;1.30;1.30;;;2.80;99.90;;;;;;6216205;23;20178;-76
2021/01/25 17:12:25;;;;;;;1.30;1.30;;;2.90;99.90;;;;;;6216747;23;20256;-77
2021/01/25 17:14:54;;;;;;;1.40;1.40;;;2.90;99.90;;;;;;6220289;23;20240;-77
2021/01/25 17:17:21;;;;;;;1.20;1.20;;;2.90;99.90;;;;;;6219696;23;20557;-78
2021/01/25 17:19:48;;;;;;;1.30;1.30;;;2.50;99.90;;;;;;6215994;23;20556;-78
2021/01/25 17:22:15;;;;;;;1.20;1.20;;;2.40;99.90;;;;;;6215400;23;20202;-77
2021/01/25 17:24:44;;;;;;;1.30;1.30;;;2.50;99.90;;;;;;6216104;23;20178;-77
2021/01/25 17:27:13;;;;;;;1.20;1.20;;;2.60;99.90;;;;;;6215346;23;20177;-77
2021/01/25 17:29:40;;;;;;;1.03;1.03;;;2.70;99.90;;;;;;6215483;23;20178;-77
2021/01/25 17:32:09;;;;;;;1.20;1.20;;;2.60;99.90;;;;;;6216237;23;20253;-76
2021/01/25 17:34:36;;;;;;;1.10;1.10;;;2.80;99.90;;;;;;6215348;23;20509;-77
2021/01/25 17:37:04;;;;;;;1.20;1.20;;;2.60;99.90;;;;;;6213847;23;20184;-75
2021/01/25 17:39:31;;;;;;;1.20;1.20;;;2.80;99.90;;;;;;6216960;23;20632;-78
2021/01/25 17:41:58;;;;;;;1.03;1.03;;;2.80;99.90;;;;;;6217311;23;20250;-77
2021/01/25 17:44:26;;;;;;;1.30;1.30;;;2.80;99.90;;;;;;6218080;23;20572;-78
2021/01/25 17:46:53;;;;;;;1.20;1.20;;;2.90;99.90;;;;;;6215197;23;20182;-78
2021/01/25 17:49:20;;;;;;;1.23;1.23;;;2.90;99.90;;;;;;6216447;23;20182;-78
2021/01/25 17:51:47;;;;;;;1.40;1.40;;;2.90;99.90;;;;;;6216229;23;20198;-77
2021/01/25 17:54:14;;;;;;;1.10;1.10;;;2.90;99.90;;;;;;6215417;23;20150;-75
2021/01/25 17:56:41;;;;;;;1.10;1.10;;;2.90;99.90;;;;;;6214880;23;20163;-77
2021/01/25 17:59:09;;;;;;;1.10;1.10;;;2.90;99.90;;;;;;6215051;23;20240;-75
2021/01/25 18:01:37;;;;;;;1.10;1.10;;;2.80;99.90;;;;;;6214242;23;20221;-74
2021/01/25 18:04:05;;;;;;;1.30;1.30;;;2.80;99.90;;;;;;6213822;23;20663;-78
2021/01/25 18:06:33;;;;;;;1.23;1.23;;;2.90;99.90;;;;;;6214591;23;20252;-78
2021/01/25 18:09:00;;;;;;;1.20;1.20;;;2.70;99.90;;;;;;6213597;23;20178;-75
2021/01/25 18:11:27;;;;;;;1.20;1.20;;;2.50;99.90;;;;;;6212563;23;20217;-75
2021/01/25 18:13:55;;;;;;;1.30;1.30;;;2.60;99.90;;;;;;6214113;23;20223;-74
2021/01/25 18:16:22;;;;;;;1.20;1.20;;;2.80;99.90;;;;;;6213314;23;20197;-76
2021/01/25 18:18:51;;;;;;;1.17;1.17;;;2.90;99.90;;;;;;6227856;23;20162;-74
2021/01/25 18:21:18;;;;;;;1.20;1.20;;;3.00;99.90;;;;;;6230630;23;20412;-77
2021/01/25 18:23:45;;;;;;;1.30;1.30;;;;;;;;;;6215582;23;20233;-78
2021/01/25 18:26:12;;;;;;;1.37;1.37;;;3.10;99.90;;;;;;6216618;23;20174;-77
2021/01/25 18:28:39;;;;;;;1.30;1.30;;;3.10;99.90;;;;;;6213824;23;20174;-76
2021/01/25 18:31:06;;;;;;;1.20;1.20;;;3.20;99.90;;;;;;6213513;23;20285;-77
2021/01/25 18:33:34;;;;;;;1.20;1.20;;;3.00;99.90;;;;;;6214150;23;20178;-76
2021/01/25 18:36:02;;;;;;;1.20;1.20;;;3.00;99.90;;;;;;6213859;23;20178;-75
2021/01/25 18:38:29;;;;;;;1.20;1.20;;;2.70;99.90;;;;;;6213695;23;20163;-75
2021/01/25 18:40:56;;;;;;;1.20;1.20;;;;;;;;;;6214013;23;20529;-77
2021/01/25 18:43:23;;;;;;;1.20;1.20;;;2.60;99.90;;;;;;6213294;23;20193;-74
2021/01/25 18:45:51;;;;;;;1.20;1.20;;;;;;;;;;6213887;23;20178;-75
2021/01/25 18:48:18;;;;;;;1.33;1.33;;;2.70;99.90;;;;;;6213678;23;20232;-74
2021/01/25 18:50:45;;;;;;;1.40;1.40;;;2.60;99.90;;;;;;6213415;23;20673;-74
2021/01/25 18:53:13;;;;;;;1.10;1.10;;;2.60;99.90;;;;;;6213531;23;20189;-74
2021/01/25 18:55:40;;;;;;;1.33;1.33;;;2.80;99.90;;;;;;6213405;23;20256;-74
2021/01/25 18:58:07;;;;;;;1.30;1.30;;;2.80;99.90;;;;;;6212402;23;20178;-74
2021/01/25 19:00:34;;;;;;;1.10;1.10;;;3.10;99.90;;;;;;6212819;23;20189;-75
2021/01/25 19:03:08;;;;;;;1.00;1.00;;;3.00;99.90;;;;;;6213981;23;20182;-78
2021/01/25 19:05:35;;;;;;;1.00;1.00;;;3.10;99.90;;;;;;6213923;23;20241;-77
2021/01/25 19:08:03;;;;;;;1.30;1.30;;;3.20;99.90;;;;;;6219159;23;20199;-79
2021/01/25 19:10:31;;;;;;;1.20;1.20;;;3.50;99.90;;;;;;6219800;23;20253;-79
2021/01/25 19:12:59;;;;;;;1.10;1.10;;;3.40;99.90;;;;;;6220690;23;20598;-79
2021/01/25 19:15:29;;;;;;;1.00;1.00;;;3.30;99.90;;;;;;6222655;23;20158;-79
2021/01/25 19:17:56;;;;;;;1.30;1.30;;;3.30;99.90;;;;;;6222822;23;20178;-79
2021/01/25 19:20:27;;;;;;;1.20;1.20;;;3.30;99.90;;;;;;6222122;23;20182;-79
2021/01/25 19:22:54;;;;;;;1.30;1.30;;;3.30;99.90;;;;;;6220229;23;20178;-79
2021/01/25 19:25:24;;;;;;;1.23;1.23;;;3.30;99.90;;;;;;6221574;23;20167;-80
2021/01/25 19:27:53;;;;;;;1.13;1.13;;;3.20;99.90;;;;;;6221966;23;20240;-79
2021/01/25 19:30:24;;;;;;;1.23;1.23;;;3.20;99.90;;;;;;6225539;23;20229;-79
2021/01/25 19:32:52;;;;;;;1.20;1.20;;;3.30;99.90;;;;;;6231079;23;20218;-81
2021/01/25 19:35:20;;;;;;;1.17;1.17;;;3.40;99.90;;;;;;6227558;23;20166;-80
2021/01/25 19:37:48;;;;;;;1.30;1.30;;;3.50;99.90;;;;;;6224082;23;20468;-81
2021/01/25 19:40:23;;;;;;;1.20;1.20;;;3.60;99.90;;;;;;6223032;23;20670;-82
2021/01/25 19:42:55;;;;;;;1.10;1.10;;;3.50;99.90;;;;;;6224245;23;20201;-82
2021/01/25 19:45:26;;;;;;;1.30;1.30;;;3.30;99.90;;;;;;6221284;23;20178;-80
2021/01/25 19:47:55;;;;;;;1.20;1.20;;;3.30;99.90;;;;;;6227165;23;20241;-80
2021/01/25 19:50:23;;;;;;;1.10;1.10;;;;;;;;;;6228263;23;20237;-79
2021/01/25 19:52:52;;;;;;;1.27;1.27;;;3.30;99.90;;;;;;6227640;23;20162;-80
2021/01/25 19:55:22;;;;;;;1.23;1.23;;;3.40;99.90;;;;;;6221715;23;20174;-79
2021/01/25 19:57:54;;;;;;;1.10;1.10;;;3.40;99.90;;;;;;6222375;23;20597;-79
2021/01/25 20:00:31;;;;;;;1.20;1.20;;;3.70;99.90;;;;;;6225347;23;20210;-80
2021/01/25 20:03:02;;;;;;;1.30;1.30;;;3.70;99.90;;;;;;6220902;23;20205;-81
2021/01/25 20:05:31;;;;;;;1.20;1.20;;;3.80;99.90;;;;;;6219519;23;20228;-80
2021/01/25 20:08:00;;;;;;;1.20;1.20;;;3.80;99.90;;;;;;6218030;23;20213;-81
2021/01/25 20:10:28;;;;;;;1.20;1.20;;;3.80;99.90;;;;;;6221108;23;20158;-80
2021/01/25 20:12:57;;;;;;;1.03;1.03;;;3.60;99.90;;;;;;6218452;22;20205;-79
2021/01/25 20:15:26;;;;;;;1.03;1.03;;;3.60;99.90;;;;;;6217209;23;20185;-77
2021/01/25 20:17:54;;;;;;;1.20;1.20;;;3.50;99.90;;;;;;6219365;23;20239;-78
2021/01/25 20:20:21;;;;;;;1.30;1.30;;;3.50;99.90;;;;;;6217661;23;20163;-78
2021/01/25 20:22:49;;;;;;;1.03;1.03;;;3.50;99.90;;;;;;6225568;23;20193;-79
2021/01/25 20:25:20;;;;;;;0.97;0.97;;;3.60;99.90;;;;;;6230330;23;20174;-79
2021/01/25 20:27:47;;;;;;;1.00;1.00;;;3.60;99.90;;;;;;6232638;23;20162;-80
2021/01/25 20:30:18;;;;;;;1.10;1.10;;;3.60;99.90;;;;;;6233412;23;20181;-79
2021/01/25 20:32:46;;;;;;;1.10;1.10;;;3.50;99.90;;;;;;6231607;23;20206;-79
2021/01/25 20:35:26;;;;;;;1.20;1.20;;;3.60;99.90;;;;;;6232226;23;20170;-78
2021/01/25 20:37:54;;;;;;;1.10;1.10;;;3.50;99.90;;;;;;6232909;23;20220;-78
2021/01/25 20:40:23;;;;;;;1.20;1.20;;;3.60;99.90;;;;;;6231148;23;20173;-78
2021/01/25 20:42:52;;;;;;;1.10;1.10;;;3.40;99.90;;;;;;6220275;23;20226;-77
2021/01/25 20:45:23;;;;;;;1.30;1.30;;;3.30;99.90;;;;;;6218638;23;20162;-78
2021/01/25 20:48:03;;;;;;;1.30;1.30;;;3.10;99.90;;;;;;6227228;23;20162;-79
2021/01/25 20:50:37;;;;;;;1.27;1.27;;;3.00;99.90;;;;;;6229170;23;20166;-79
2021/01/25 20:53:12;;;;;;;1.20;1.20;;;2.80;99.90;;;;;;6232018;23;20194;-79
2021/01/25 20:55:40;;;;;;;1.30;1.30;;;2.90;99.90;;;;;;6204214;23;20213;-79
2021/01/25 20:58:11;;;;;;;1.20;1.20;;;2.80;99.90;;;;;;6232418;23;20162;-79
2021/01/25 21:00:43;;;;;;;1.10;1.10;;;2.80;99.90;;;;;;6231088;23;20198;-79
2021/01/25 21:03:13;;;;;;;1.10;1.10;;;2.70;99.90;;;;;;6225641;23;20193;-78
2021/01/25 21:05:42;;;;;;;1.30;1.30;;;2.70;99.90;;;;;;6230044;23;20177;-79
2021/01/25 21:08:12;;;;;;;1.40;1.40;;;2.60;99.90;;;;;;6231122;23;20209;-79
2021/01/25 21:10:41;;;;;;;1.23;1.23;;;2.60;99.90;;;;;;6231882;23;20185;-78
2021/01/25 21:13:16;;;;;;;1.20;1.20;;;2.70;99.90;;;;;;6201638;23;20285;-78
2021/01/25 21:15:48;;;;;;;1.20;1.20;;;2.70;99.90;;;;;;6220048;23;20238;-77
2021/01/25 21:18:18;;;;;;;1.17;1.17;;;2.60;99.90;;;;;;6213733;23;20163;-74
2021/01/25 21:20:49;;;;;;;1.40;1.40;;;2.60;99.90;;;;;;6213224;23;20178;-74
2021/01/25 21:23:21;;;;;;;1.23;1.23;;;2.60;99.90;;;;;;6213687;23;20284;-74
2021/01/25 21:25:49;;;;;;;1.20;1.20;;;2.50;99.90;;;;;;6188021;23;20167;-74
2021/01/25 21:28:17;;;;;;;1.30;1.30;;;2.30;99.90;;;;;;6213874;23;20227;-74
2021/01/25 21:30:47;;;;;;;1.20;1.20;;;2.30;99.90;;;;;;6211241;23;20166;-77
2021/01/25 21:33:21;;;;;;;1.10;1.10;;;2.40;99.90;;;;;;6212266;23;20190;-76
2021/01/25 21:35:49;;;;;;;1.37;1.37;;;2.20;99.90;;;;;;6146790;23;20157;-77
2021/01/25 21:38:18;;;;;;;1.30;1.30;;;2.00;99.90;;;;;;6213763;23;20228;-76
2021/01/25 21:40:47;;;;;;;1.27;1.27;;;1.90;99.90;;;;;;6213150;23;20166;-76
2021/01/25 21:43:15;;;;;;;1.30;1.30;;;1.90;99.90;;;;;;6214058;23;20237;-76
2021/01/25 21:45:43;;;;;;;1.10;1.10;;;2.00;99.90;;;;;;6213853;23;20250;-76
2021/01/25 21:48:13;;;;;;;1.30;1.30;;;2.00;99.90;;;;;;6213970;23;20174;-76
2021/01/25 21:50:41;;;;;;;1.13;1.13;;;2.00;99.90;;;;;;6213911;23;20667;-76
2021/01/25 21:53:09;;;;;;;1.20;1.20;;;2.00;99.90;;;;;;6213990;23;20198;-76
2021/01/25 21:55:36;;;;;;;1.30;1.30;;;;;;;;;;6214469;23;20182;-76
2021/01/25 21:58:03;;;;;;;1.20;1.20;;;2.00;99.90;;;;;;6214387;23;20174;-76
